• Join FlightAware (Why Join?)
  • Login
  • US Flag 
01:33AM EDT


 

Airport Tracker/Info


-or-


 

Live Flight TrackerFlight Track Log ✈ JAL41 ✈ 14-Oct-2013 ✈ RJTT / HND - LFPG / CDG

Flight Track Log - Related Links

Times and Time Zones

All times are in EDT time to prevent confusion due to time zone crossing. See the JAL41 flight status page for this flight to view local times or setup timezone preferences in your user account.

Time Position Orientation Groundspeed Altitude Reporting Facility
EDT Latitude Longitude Course Direction KTS MPH feet Rate Location/Type
12:12PM 35.5320 139.8130 22° Northeast 145 167  Level FlightAware
12:12PM 35.5420 139.8230 39° Northeast 177 204 100 2,100 Climbing FlightAware
12:13PM 35.5610 139.8450 43° Northeast 164 189 1,800 2,640 Climbing FlightAware
12:13PM 35.5690 139.8560 48° Northeast 182 209 2,100 1,260 Climbing FlightAware
12:13PM 35.5710 139.8620 68° East 185 213 2,200 1,680 Climbing FlightAware
12:14PM 35.5580 139.8910 119° Southeast 200 230 3,100 1,680 Climbing FlightAware
12:14PM 35.5520 139.8930 165° South 201 231 3,300 1,500 Climbing FlightAware
12:14PM 35.5470 139.8940 171° South 206 237 3,400 900 Climbing FlightAware
12:14PM 35.5280 139.8870 197° South 218 251 3,700 960 Climbing FlightAware
12:15PM 35.5150 139.8740 219° Southwest 238 274 4,000 1,140 Climbing FlightAware
12:15PM 35.4970 139.8560 219° Southwest 256 295 4,400 1,320 Climbing FlightAware
12:15PM 35.4890 139.8480 219° Southwest 266 306 4,700 2,280 Climbing FlightAware
12:15PM 35.4630 139.8230 218° Southwest 270 311 5,700 2,520 Climbing FlightAware
12:16PM 35.4480 139.8080 219° Southwest 267 307 6,400 2,460 Climbing FlightAware
12:16PM 35.4280 139.7890 218° Southwest 269 310 7,200 2,520 Climbing FlightAware
12:16PM 35.4070 139.7690 218° Southwest 268 308 8,100 2,280 Climbing FlightAware
12:17PM 35.3880 139.7500 219° Southwest 284 327 8,700 1,980 Climbing FlightAware
12:17PM 35.3670 139.7310 216° Southwest 287 330 9,400 1,680 Climbing FlightAware
12:18PM 35.3280 139.6940 218° Southwest 309 356 10,300 1,500 Climbing FlightAware
12:18PM 35.2860 139.6560 216° Southwest 323 372 11,200 1,740 Climbing FlightAware
12:19PM 35.2380 139.6110 217° Southwest 323 372 12,500 1,920 Climbing FlightAware
12:19PM 35.1950 139.5710 217° Southwest 327 376 13,600 1,740 Climbing FlightAware
12:20PM 35.1840 139.5580 224° Southwest 330 380 13,900 1,680 Climbing FlightAware
12:20PM 35.1760 139.5420 239° Southwest 327 376 14,200 1,980 Climbing FlightAware
12:20PM 35.1730 139.5230 259° West 324 373 14,500 1,740 Climbing FlightAware
12:20PM 35.1810 139.4800 283° West 322 371 15,200 1,740 Climbing FlightAware
12:21PM 35.1910 139.4650 309° West 323 372 15,500 1,680 Climbing FlightAware
12:21PM 35.2100 139.4520 331° Northwest 335 386 15,900 1,680 Climbing FlightAware
12:21PM 35.2260 139.4470 346° North 340 391 16,200 1,980 Climbing FlightAware
12:21PM 35.2340 139.4470 360° North 341 392 16,400 1,680 Climbing FlightAware
12:21PM 35.2570 139.4530 12° North 346 398 16,800 1,140 Climbing FlightAware
12:22PM 35.2720 139.4630 29° Northeast 360 414 16,900 1,020 Climbing FlightAware
12:22PM 35.2970 139.4920 43° Northeast 383 441 17,300 1,020 Climbing FlightAware
12:22PM 35.3160 139.5140 43° Northeast 379 436 17,500 600 Climbing FlightAware
12:22PM 35.3310 139.5270 35° Northeast 385 443 17,600 660 Climbing FlightAware
12:23PM 35.3560 139.5390 21° North 386 444 17,800 1,260 Climbing FlightAware
12:23PM 35.4190 139.5530 10° North 387 445 18,600 1,320 Climbing FlightAware
12:24PM 35.4890 139.5610 North 384 442 19,500 1,320 Climbing FlightAware
12:24PM 35.5530 139.5670 North 388 447 20,300 1,380 Climbing FlightAware
12:25PM 35.6180 139.5730 North 400 460 21,100 1,260 Climbing FlightAware
12:25PM 35.6820 139.5800 North 406 467 21,800 840 Climbing FlightAware
12:26PM 35.7510 139.5870 North 421 484 22,100 840 Climbing FlightAware
12:27PM 35.8190 139.5940 North 418 481 22,800 1,140 Climbing FlightAware
12:27PM 35.8880 139.6010 North 422 486 23,500 1,020 Climbing FlightAware
12:28PM 35.9450 139.6050 North 420 483 24,000 1,080 Climbing FlightAware
12:28PM 35.9960 139.5970 353° North 414 476 24,500 1,020 Climbing FlightAware
12:29PM 36.0670 139.5660 341° North 420 483 25,100 960 Climbing FlightAware
12:29PM 36.1340 139.5310 337° Northwest 418 481 25,700 960 Climbing FlightAware
12:30PM 36.1870 139.5030 337° Northwest 422 486 26,200 900 Climbing FlightAware
12:31PM 36.2630 139.4630 337° Northwest 434 499 26,800 900 Climbing FlightAware
12:31PM 36.3190 139.4340 337° Northwest 438 504 27,300 900 Climbing FlightAware
12:32PM 36.3830 139.4000 337° Northwest 434 499 27,800 900 Climbing FlightAware
12:32PM 36.4450 139.3680 337° Northwest 436 502 28,400 960 Climbing FlightAware
12:33PM 36.5220 139.3270 337° Northwest 447 514 29,000 960 Climbing FlightAware
12:33PM 36.5900 139.2920 338° Northwest 448 516 29,600 960 Climbing FlightAware
12:34PM 36.6580 139.2560 337° Northwest 449 517 30,200 900 Climbing FlightAware
12:35PM 36.7260 139.2200 337° Northwest 451 519 30,700 900 Climbing FlightAware
12:35PM 36.7910 139.1850 337° Northwest 448 516 31,300 1,020 Climbing FlightAware
12:36PM 36.8610 139.1490 338° Northwest 448 516 31,900 600 Climbing FlightAware
12:36PM 36.9230 139.1160 337° Northwest 454 522 32,000 60 Climbing FlightAware
12:37PM 36.9900 139.0800 337° Northwest 457 526 32,000  Level FlightAware
12:38PM 37.0570 139.0440 337° Northwest 458 527 32,000  Level FlightAware
12:38PM 37.1270 139.0070 337° Northwest 458 527 32,000  Level FlightAware
12:39PM 37.1860 138.9750 337° Northwest 459 528 32,000  Level FlightAware
12:39PM 37.2570 138.9370 337° Northwest 453 521 32,000  Level FlightAware
12:40PM 37.3290 138.8980 337° Northwest 452 520 32,000  Level FlightAware
12:40PM 37.3980 138.8610 337° Northwest 523 602 32,000  Level FlightAware
12:41PM 37.4660 138.8240 337° Northwest 456 525 32,000  Level FlightAware
12:42PM 37.5370 138.7860 337° Northwest 456 525 32,000  Level FlightAware
12:42PM 37.5940 138.7550 337° Northwest 456 525 32,000  Level FlightAware
12:43PM 37.6720 138.7130 337° Northwest 456 525 32,000  Level FlightAware
12:43PM 37.7390 138.6760 336° Northwest 455 524 32,000  Level FlightAware
12:44PM 37.8060 138.6400 337° Northwest 454 522 32,000  Level FlightAware
12:45PM 37.8710 138.6040 336° Northwest 456 525 32,000  Level FlightAware
12:45PM 37.9420 138.5650 337° Northwest 453 521 32,000  Level FlightAware
12:46PM 38.0080 138.5290 337° Northwest 453 521 32,000  Level FlightAware
12:46PM 38.0750 138.4920 337° Northwest 456 525 32,000  Level FlightAware
12:47PM 38.1460 138.4530 337° Northwest 457 526 32,000  Level FlightAware
12:47PM 38.2160 138.4150 337° Northwest 456 525 32,000  Level FlightAware
12:48PM 38.2810 138.3790 337° Northwest 456 525 32,000  Level FlightAware
12:49PM 38.3510 138.3400 336° Northwest 456 525 32,000  Level FlightAware
12:49PM 38.4180 138.3030 337° Northwest 457 526 32,000  Level FlightAware
12:50PM 38.4960 138.2590 336° Northwest 458 527 32,000  Level FlightAware
12:50PM 38.5610 138.2230 337° Northwest 456 525 32,000  Level FlightAware
12:51PM 38.6190 138.1910 337° Northwest 455 524 32,000  Level FlightAware
12:52PM 38.6910 138.1500 336° Northwest 455 524 32,000  Level FlightAware
12:52PM 38.7430 138.1210 336° Northwest 455 524 32,000  Level FlightAware
12:53PM 38.8240 138.0760 337° Northwest 454 522 32,000  Level FlightAware
12:53PM 38.9000 138.0330 336° Northwest 452 520 32,000  Level FlightAware
12:54PM 38.9640 137.9970 336° Northwest 451 519 32,000  Level FlightAware
12:55PM 39.0210 137.9650 336° Northwest 451 519 32,000  Level FlightAware
12:55PM 39.1020 137.9190 336° Northwest 438 504 32,000  Level FlightAware
12:56PM 39.1700 137.8830 338° Northwest 450 518 32,000  Level FlightAware
12:56PM 39.2120 137.8750 352° North 454 522 32,000  Level FlightAware
12:57PM 39.2770 137.8780 North 469 540 32,000  Level FlightAware
12:57PM 39.3520 137.8840 North 471 542 32,000  Level FlightAware
12:58PM 39.4280 137.8910 North 464 534 32,000  Level FlightAware
12:58PM 39.5150 137.8980 North 463 533 32,000  Level FlightAware
12:59PM 39.5930 137.9040 North 470 541 32,000  Level FlightAware
01:00PM 39.6700 137.9100 North 470 541 32,000  Level FlightAware
01:00PM 39.7450 137.9160 North 468 539 32,000  Level FlightAware
01:01PM 39.8220 137.9220 North 465 535 32,000  Level FlightAware
01:01PM 39.8960 137.9280 North 465 535 32,000  Level FlightAware
01:02PM 39.9710 137.9340 North 464 534 32,000  Level FlightAware
01:03PM 40.0570 137.9410 North 463 533 32,000  Level FlightAware
01:03PM 40.1300 137.9470 North 463 533 32,000  Level FlightAware
01:04PM 40.2170 137.9540 North 454 522 32,000  Level FlightAware
01:04PM 40.2820 137.9600 North 453 521 32,000  Level FlightAware
01:05PM 40.3560 137.9660 North 452 520 32,000  Level FlightAware
01:06PM 40.4420 137.9730 North 451 519 32,000  Level FlightAware
01:06PM 40.5040 137.9780 North 449 517 32,000  Level FlightAware
01:07PM 40.5800 137.9840 North 449 517 32,000  Level FlightAware
01:07PM 40.6490 137.9900 North 450 518 32,000  Level FlightAware
01:08PM 40.7300 137.9970 North 453 521 32,000  Level FlightAware
01:08PM 40.7980 138.0020 North 454 522 32,000  Level FlightAware
01:09PM 40.8880 138.0100 North 449 517 32,000  Level FlightAware
01:10PM 40.9520 138.0150 North 448 516 32,000  Level FlightAware
01:10PM 41.0260 138.0210 North 454 522 32,000  Level FlightAware
01:11PM 41.1090 138.0280 North 453 521 32,000  Level FlightAware
01:12PM 41.2040 138.0360 North 453 521 32,000  Level FlightAware
01:12PM 41.2760 138.0420 North 451 519 32,000  Level FlightAware
01:13PM 41.3500 138.0490 North 450 518 32,000  Level FlightAware
01:13PM 41.4230 138.0550 North 439 505 32,000  Level FlightAware
01:14PM 41.4930 138.0610 North 434 499 32,000  Level FlightAware
01:15PM 41.5650 138.0670 North 432 497 32,000  Level FlightAware
01:15PM 41.6480 138.0740 North 431 496 32,000  Level FlightAware
01:16PM 41.7190 138.0800 North 438 504 32,000  Level FlightAware
01:16PM 41.7890 138.0860 North 439 505 32,000  Level FlightAware
01:17PM 41.8890 138.0950 North 437 503 32,000  Level FlightAware
01:18PM 41.9570 138.1000 North 437 503 32,000  Level FlightAware
01:18PM 42.0190 138.1040 North 437 503 32,000  Level FlightAware
01:19PM 42.1600 138.1180 North 460 529 32,000  Level FlightAware
01:20PM 42.2560 138.1270 North 433 498 32,000  Level FlightAware
01:21PM 42.3280 138.1330 North 434 499 32,000  Level FlightAware
01:22PM 42.3960 138.1380 North 434 499 32,000  Level FlightAware
01:22PM 42.4800 138.1460 North 433 498 32,000  Level FlightAware
01:23PM 42.5500 138.1520 North 431 496 32,000  Level FlightAware
01:23PM 42.6230 138.1590 North 421 484 32,000  Level FlightAware
01:24PM 42.6960 138.1650 North 421 484 32,000  Level FlightAware
01:25PM 42.7570 138.1690 North 421 484 32,000  Level FlightAware
01:25PM 42.8150 138.1730 North 421 484 32,000  Level FlightAware
01:26PM 42.8740 138.1770 North 421 484 32,000  Level FlightAware
01:26PM 42.9340 138.1820 North 421 484 32,000  Level FlightAware
01:27PM 43.0760 138.1980 North 417 480 32,000  Level FlightAware
01:28PM 43.1310 138.2020 North 417 480 32,000  Level FlightAware
01:28PM 43.1940 138.2070 North 417 480 32,000  Level FlightAware
01:29PM 43.2490 138.2110 North 417 480 32,000  Level FlightAware
01:30PM 43.3100 138.2150 North 417 480 32,000  Level FlightAware
01:31PM 43.5070 138.2380 North 418 481 32,000  Level FlightAware
01:32PM 43.5790 138.2440 North 418 481 32,000  Level FlightAware
01:32PM 43.6560 138.2440 360° North 418 481 32,000  Level FlightAware
01:33PM 43.7220 138.2480 North 418 481 32,000  Level FlightAware
01:33PM 43.7770 138.2520 North 418 481 32,000  Level FlightAware
01:34PM 43.8360 138.2570 North 418 481 32,000  Level FlightAware
01:35PM 43.8960 138.2610 North 418 481 32,000  Level FlightAware
01:35PM 43.9550 138.2650 North 418 481 32,000  Level FlightAware
01:36PM 44.0140 138.2700 North 418 481 32,000  Level FlightAware
01:36PM 44.0740 138.2740 North 418 481 32,000  Level FlightAware
01:37PM 44.1340 138.2780 North 418 481 32,000  Level FlightAware
01:38PM 44.1930 138.2830 North 418 481 32,000  Level FlightAware
01:38PM 44.2550 138.2870 North 418 481 32,000  Level FlightAware
01:39PM 44.3110 138.2910 North 418 481 32,000  Level FlightAware
01:39PM 44.3700 138.2960 North 418 481 32,000  Level FlightAware
01:40PM 44.4290 138.3000 North 418 481 32,000  Level FlightAware
01:41PM 44.4900 138.3040 North 418 481 32,000  Level FlightAware
01:41PM 44.5490 138.3090 North 418 481 32,000  Level FlightAware
01:42PM 44.6080 138.3130 North 418 481 32,000  Level FlightAware
01:44PM 44.7980 138.1717 332° Northwest  Level Estimated
01:45PM 44.9076 138.0897 332° Northwest  Level Estimated
01:46PM 45.0171 138.0074 332° Northwest  Level Estimated
01:47PM 45.1265 137.9249 332° Northwest  Level Estimated
01:48PM 45.2359 137.8420 332° Northwest  Level Estimated
01:49PM 45.3452 137.7587 332° Northwest  Level Estimated
01:50PM 45.4544 137.6752 332° Northwest  Level Estimated
01:51PM 45.5636 137.5913 332° Northwest  Level Estimated
01:52PM 45.6727 137.5072 332° Northwest  Level Estimated
01:53PM 45.7818 137.4226 332° Northwest  Level Estimated
01:54PM 45.8908 137.3378 332° Northwest  Level Estimated
01:55PM 45.9997 137.2526 331° Northwest  Level Estimated
01:56PM 46.1086 137.1671 331° Northwest  Level Estimated
01:56PM 46.4560 138.0720 331° Northwest 434 499 32,000  Level FlightAware
01:56PM 46.5210 138.0630 355° North 424 488 32,000 120 Level FlightAware
01:57PM 46.5900 138.0350 344° North 413 475 32,200 540 Climbing FlightAware
01:58PM 46.6630 137.9990 341° North 409 471 32,700 840 Climbing FlightAware
01:58PM 46.7250 137.9690 342° North 409 471 33,300 840 Climbing FlightAware
01:59PM 46.7960 137.9340 341° North 410 472 33,800 600 Climbing FlightAware
01:59PM 46.8500 137.9070 341° North 413 475 34,000 120 Climbing FlightAware
02:00PM 46.9140 137.8760 342° North 410 472 34,000  Level FlightAware
02:01PM 46.9980 137.8350 342° North 411 473 34,000  Level FlightAware
02:01PM 47.0520 137.8090 342° North 412 474 34,000  Level FlightAware
02:02PM 47.1140 137.7780 341° North 413 475 34,000  Level FlightAware
02:02PM 47.1780 137.7460 341° North 415 478 34,000  Level FlightAware
02:03PM 47.2500 137.7110 342° North 414 476 34,000  Level FlightAware
02:04PM 47.3030 137.6840 341° North 414 476 34,000  Level FlightAware
02:04PM 47.3770 137.6470 341° North 419 482 34,000  Level FlightAware
02:05PM 47.4310 137.6200 341° North 423 487 34,000  Level FlightAware
02:05PM 47.5070 137.5820 341° North 426 490 34,000  Level FlightAware
02:06PM 47.5510 137.5600 341° North 427 491 34,000  Level FlightAware
02:06PM 47.6190 137.5260 341° North 427 491 34,000  Level FlightAware
02:07PM 47.6840 137.4930 341° North 425 489 34,000  Level FlightAware
02:08PM 47.7500 137.4600 341° North 426 490 34,000  Level FlightAware
02:08PM 47.8140 137.4270 341° North 430 495 34,000  Level FlightAware
02:09PM 47.8800 137.3930 341° North 432 497 34,000  Level FlightAware
02:09PM 47.9460 137.3600 341° North 434 499 34,000  Level FlightAware
02:10PM 48.0130 137.3260 341° North 435 501 34,000  Level FlightAware
02:10PM 48.0700 137.2960 341° North 436 502 34,000  Level FlightAware
02:11PM 48.1070 137.2770 341° North 436 502 34,000  Level FlightAware
02:12PM 48.2030 137.2280 341° North 438 504 34,000  Level FlightAware
02:12PM 48.2800 137.1880 341° North 440 506 34,000  Level FlightAware
02:13PM 48.3470 137.1530 341° North 440 506 34,000  Level FlightAware
02:13PM 48.4140 137.1190 341° North 440 506 34,000  Level FlightAware
02:14PM 48.4820 137.0830 341° North 439 505 34,000  Level FlightAware
02:15PM 48.5490 137.0490 341° North 441 507 34,000  Level FlightAware
02:15PM 48.6170 137.0130 341° North 440 506 34,000  Level FlightAware
02:16PM 48.6740 136.9840 341° North 441 507 34,000  Level FlightAware
02:16PM 48.7500 136.9430 340° North 441 507 34,000  Level FlightAware
02:17PM 48.8190 136.9070 341° North 441 507 34,000  Level FlightAware
02:17PM 48.8850 136.8710 340° North 441 507 34,000  Level FlightAware
02:18PM 48.9530 136.8350 341° North 442 509 34,000  Level FlightAware
02:19PM 49.0090 136.8050 341° North 442 509 34,000  Level FlightAware
02:19PM 49.0860 136.7640 341° North 440 506 34,000  Level FlightAware
02:20PM 49.1550 136.7260 340° North 438 504 34,000  Level FlightAware
02:20PM 49.2210 136.6900 340° North 437 503 34,000  Level FlightAware
02:21PM 49.2870 136.6540 340° North 437 503 34,000  Level FlightAware
02:22PM 49.3530 136.6180 340° North 439 505 34,000  Level FlightAware
02:22PM 49.4200 136.5800 340° North 439 505 34,000  Level FlightAware
02:23PM 49.4840 136.5320 334° Northwest 431 496 34,000  Level FlightAware
02:23PM 49.5350 136.4880 331° Northwest 428 493 34,000  Level FlightAware
02:24PM 49.5950 136.4340 330° Northwest 428 493 34,000  Level FlightAware
02:24PM 49.6450 136.3860 328° Northwest 426 490 34,000  Level FlightAware
02:25PM 49.6950 136.3380 328° Northwest 428 493 34,000  Level FlightAware
02:25PM 49.7540 136.2810 328° Northwest 431 496 34,000  Level FlightAware
02:26PM 49.8130 136.2240 328° Northwest 430 495 34,000  Level FlightAware
02:27PM 49.8720 136.1670 328° Northwest 429 494 34,000  Level FlightAware
02:27PM 49.9320 136.1100 329° Northwest 430 495 34,000  Level FlightAware
02:28PM 49.9910 136.0530 328° Northwest 430 495 34,000  Level FlightAware
02:28PM 50.0490 135.9970 328° Northwest 431 496 34,000  Level FlightAware
02:29PM 50.1090 135.9390 328° Northwest 432 497 34,000  Level FlightAware
02:30PM 50.1760 135.8720 327° Northwest 433 498 34,000  Level FlightAware
02:30PM 50.2270 135.8230 328° Northwest 434 499 34,000  Level FlightAware
02:31PM 50.2850 135.7660 328° Northwest 434 499 34,000  Level FlightAware
02:31PM 50.3370 135.7140 327° Northwest 434 499 34,000  Level FlightAware
02:32PM 50.3960 135.6560 328° Northwest 436 502 34,000  Level FlightAware
02:32PM 50.4560 135.5960 328° Northwest 440 506 34,000  Level FlightAware
02:33PM 50.5160 135.5370 328° Northwest 442 509 34,000  Level FlightAware
02:33PM 50.5760 135.4770 328° Northwest 444 511 34,000  Level FlightAware
02:34PM 50.6280 135.4250 328° Northwest 444 511 34,000  Level FlightAware
02:35PM 50.6890 135.3640 328° Northwest 442 509 34,000  Level FlightAware
02:35PM 50.7410 135.3120 328° Northwest 442 509 34,000  Level FlightAware
02:36PM 50.8000 135.2520 327° Northwest 445 512 34,000  Level FlightAware
02:36PM 50.8630 135.1880 327° Northwest 447 514 34,000  Level FlightAware
02:37PM 50.9410 135.1090 327° Northwest 447 514 34,000  Level FlightAware
02:38PM 51.0190 135.0300 328° Northwest 447 514 34,000  Level FlightAware
02:38PM 51.0780 134.9690 327° Northwest 447 514 34,000  Level FlightAware
02:39PM 51.1380 134.9090 328° Northwest 447 514 34,000  Level FlightAware
02:39PM 51.1970 134.8480 327° Northwest 447 514 34,000  Level FlightAware
02:40PM 51.2570 134.7870 328° Northwest 447 514 34,000  Level FlightAware
02:41PM 51.3430 134.6980 327° Northwest 447 514 34,000  Level FlightAware
02:41PM 51.3990 134.6410 328° Northwest 447 514 34,000  Level FlightAware
02:42PM 51.4700 134.5840 333° Northwest 589 678 34,000  Level FlightAware
02:42PM 51.4820 134.5720 328° Northwest 458 527 34,000  Level FlightAware
02:43PM 51.5390 134.5120 327° Northwest 458 527 34,000  Level FlightAware
02:43PM 51.5950 134.4540 327° Northwest 458 527 34,000  Level FlightAware
02:44PM 51.6480 134.3990 327° Northwest 458 527 34,000  Level FlightAware
02:45PM 51.7020 134.3420 327° Northwest 458 527 34,000  Level FlightAware
02:45PM 51.7560 134.2850 327° Northwest 458 527 34,000  Level FlightAware
02:46PM 51.8120 134.2260 327° Northwest 458 527 34,000  Level FlightAware
02:46PM 51.8670 134.1690 327° Northwest 458 527 34,000  Level FlightAware
02:47PM 51.9210 134.1120 327° Northwest 458 527 34,000  Level FlightAware
02:48PM 51.9770 134.0530 327° Northwest 458 527 34,000  Level FlightAware
02:48PM 52.0480 133.9780 327° Northwest 458 527 34,000  Level FlightAware
02:49PM 52.1020 133.9200 327° Northwest 458 527 34,000  Level FlightAware
02:49PM 52.1390 133.8820 328° Northwest 458 527 34,000  Level FlightAware
02:50PM 52.1930 133.8240 327° Northwest 458 527 34,000  Level FlightAware
02:51PM 52.2440 133.7700 327° Northwest 458 527 34,000  Level FlightAware
02:51PM 52.3000 133.7110 327° Northwest 458 527 34,000  Level FlightAware
02:52PM 52.3520 133.6560 327° Northwest 458 527 34,000  Level FlightAware
02:54PM 52.5401 133.4653 328° Northwest  Level Estimated
02:55PM 52.6455 133.3577 328° Northwest  Level Estimated
02:56PM 52.7508 133.2496 328° Northwest  Level Estimated
02:57PM 52.8559 133.1409 328° Northwest  Level Estimated
02:58PM 52.9610 133.0317 328° Northwest  Level Estimated
02:59PM 53.0660 132.9220 328° Northwest  Level Estimated
03:00PM 53.1708 132.8117 328° Northwest  Level Estimated
03:01PM 53.2756 132.7009 328° Northwest  Level Estimated
03:02PM 53.3803 132.5896 328° Northwest  Level Estimated
03:03PM 53.4848 132.4777 328° Northwest  Level Estimated
03:04PM 53.5894 132.3651 327° Northwest  Level Estimated
03:05PM 53.6939 132.2519 327° Northwest  Level Estimated
03:06PM 53.7983 132.1382 327° Northwest  Level Estimated
03:07PM 53.9026 132.0239 327° Northwest  Level Estimated
03:08PM 54.0067 131.9090 327° Northwest  Level Estimated
03:09PM 54.1108 131.7935 327° Northwest  Level Estimated
03:10PM 54.2147 131.6775 327° Northwest  Level Estimated
03:11PM 54.3186 131.5609 327° Northwest  Level Estimated
03:12PM 54.4223 131.4437 327° Northwest  Level Estimated
03:13PM 54.5259 131.3259 327° Northwest  Level Estimated
03:14PM 54.6294 131.2075 327° Northwest  Level Estimated
03:15PM 54.7328 131.0885 326° Northwest  Level Estimated
03:16PM 54.8360 130.9689 326° Northwest  Level Estimated
03:16PM 55.0490 130.1680 326° Northwest 482 555 34,000  Level FlightAware
03:17PM 55.1280 130.0490 319° Northwest 481 554 34,000  Level FlightAware
03:17PM 55.1800 129.9710 319° Northwest 481 554 34,000  Level FlightAware
03:18PM 55.2310 129.8930 319° Northwest 481 554 34,000  Level FlightAware
03:18PM 55.2840 129.8120 319° Northwest 481 554 34,000  Level FlightAware
03:19PM 55.0900 130.1080 139° Southeast 34,000  Level FlightAware
03:19PM 55.4310 129.7350 328° Northwest 490 564 34,000  Level FlightAware
03:20PM 55.5130 129.6740 337° Northwest 490 564 34,000  Level FlightAware
03:21PM 55.5760 129.6260 337° Northwest 490 564 34,000  Level FlightAware
03:21PM 55.6540 129.5710 338° Northwest 489 563 34,000  Level FlightAware
03:22PM 55.7750 129.4800 337° Northwest 485 558 34,000  Level FlightAware
03:23PM 55.8400 129.4310 337° Northwest 485 558 34,000  Level FlightAware
03:23PM 55.9520 129.3470 337° Northwest 485 558 34,000  Level FlightAware
03:24PM 56.0340 129.2850 337° Northwest 487 560 34,000  Level FlightAware
03:25PM 56.0970 129.2370 337° Northwest 487 560 34,000  Level FlightAware
03:25PM 56.1620 129.1870 337° Northwest 487 560 34,000  Level FlightAware
03:26PM 56.2290 129.1360 337° Northwest 487 560 34,000  Level FlightAware
03:27PM 56.2940 129.0860 337° Northwest 487 560 34,000  Level FlightAware
03:27PM 56.3580 129.0380 337° Northwest 487 560 34,000  Level FlightAware
03:28PM 56.4210 128.9890 337° Northwest 487 560 34,000  Level FlightAware
03:28PM 56.4810 128.9430 337° Northwest 487 560 34,000  Level FlightAware
03:29PM 56.5470 128.8930 337° Northwest 487 560 34,000  Level FlightAware
03:30PM 56.6100 128.8440 337° Northwest 487 560 34,000  Level FlightAware
03:30PM 56.6730 128.7950 337° Northwest 487 560 34,000  Level FlightAware
03:31PM 56.7390 128.7440 337° Northwest 487 560 34,000  Level FlightAware
03:31PM 56.8040 128.6940 337° Northwest 487 560 34,000  Level FlightAware
03:32PM 56.8670 128.6450 337° Northwest 487 560 34,000  Level FlightAware
03:33PM 56.9310 128.5950 337° Northwest 487 560 34,000  Level FlightAware
03:33PM 57.0080 128.5350 337° Northwest 487 560 34,000  Level FlightAware
03:36PM 57.2291 128.2393 324° Northwest  Level Estimated
03:37PM 57.3293 128.1038 324° Northwest  Level Estimated
03:37PM 57.6250 128.0180 324° Northwest 487 560 34,000  Level FlightAware
03:37PM 57.6890 127.9640 336° Northwest 489 563 34,000  Level FlightAware
03:38PM 57.7680 127.8990 336° Northwest 490 564 34,000  Level FlightAware
03:39PM 57.7720 127.8950 332° Northwest 489 563 34,000  Level FlightAware
03:39PM 57.9230 127.7680 336° Northwest 490 564 34,000  Level FlightAware
03:40PM 57.9790 127.7190 335° Northwest 490 564 34,000  Level FlightAware
03:40PM 58.0770 127.6360 336° Northwest 491 565 34,000  Level FlightAware
03:41PM 58.1490 127.5750 336° Northwest 492 566 34,000  Level FlightAware
03:42PM 58.2110 127.5230 336° Northwest 491 565 34,000  Level FlightAware
03:42PM 58.2850 127.4590 336° Northwest 492 566 34,000  Level FlightAware
03:43PM 58.3500 127.4040 336° Northwest 494 568 34,000  Level FlightAware
03:43PM 58.4260 127.3380 336° Northwest 494 568 34,000  Level FlightAware
03:44PM 58.5120 127.2630 336° Northwest 494 568 34,000  Level FlightAware
03:44PM 58.5720 127.2100 335° Northwest 495 570 34,000  Level FlightAware
03:45PM 58.6460 127.1450 335° Northwest 497 572 34,000  Level FlightAware
03:46PM 58.7080 127.0910 336° Northwest 497 572 34,000  Level FlightAware
03:46PM 58.7770 127.0300 335° Northwest 496 571 34,000  Level FlightAware
03:47PM 58.8560 126.9600 335° Northwest 495 570 34,000  Level FlightAware
03:47PM 58.9280 126.8960 335° Northwest 496 571 34,000  Level FlightAware
03:48PM 59.0010 126.8300 335° Northwest 495 570 34,000  Level FlightAware
03:48PM 59.0700 126.7680 335° Northwest 493 567 34,000  Level FlightAware
03:49PM 59.1450 126.7000 335° Northwest 492 566 34,000  Level FlightAware
03:49PM 59.1980 126.6520 335° Northwest 493 567 34,000  Level FlightAware
03:50PM 59.2820 126.5760 335° Northwest 494 568 34,000  Level FlightAware
03:51PM 59.3540 126.5100 335° Northwest 493 567 34,000  Level FlightAware
03:51PM 59.4170 126.4510 335° Northwest 493 567 34,000  Level FlightAware
03:52PM 59.4830 126.3900 335° Northwest 493 567 34,000  Level FlightAware
03:52PM 59.5680 126.3120 335° Northwest 493 567 34,000  Level FlightAware
03:53PM 59.6230 126.2610 335° Northwest 492 566 34,000  Level FlightAware
03:54PM 59.6900 126.1990 335° Northwest 492 566 34,000  Level FlightAware
03:54PM 59.7590 126.1310 334° Northwest 492 566 34,000  Level FlightAware
03:55PM 59.8230 126.0690 334° Northwest 492 566 34,000  Level FlightAware
03:55PM 59.9260 125.9750 335° Northwest 492 566 34,000  Level FlightAware
03:56PM 59.9920 125.9110 334° Northwest 492 566 34,000  Level FlightAware
03:57PM 60.0540 125.8500 334° Northwest 492 566 34,000  Level FlightAware
03:57PM 60.1480 125.7620 335° Northwest 488 562 34,000  Level FlightAware
03:58PM 60.2420 125.6700 334° Northwest 486 559 34,000  Level FlightAware
03:59PM 60.3470 125.5680 334° Northwest 481 554 34,000  Level FlightAware
03:59PM 60.4040 125.5110 334° Northwest 481 554 34,000  Level FlightAware
04:00PM 60.4670 125.4480 334° Northwest 481 554 34,000  Level FlightAware
04:01PM 60.2970 125.6160 154° Southeast 34,000  Level FlightAware
04:01PM 60.6410 125.2760 334° Northwest 484 557 34,000  Level FlightAware
04:02PM 60.7050 125.2120 334° Northwest 483 556 34,000  Level FlightAware
04:02PM 60.7730 125.1440 334° Northwest 481 554 34,000  Level FlightAware
04:03PM 60.8610 125.0540 334° Northwest 478 550 34,000  Level FlightAware
04:04PM 60.9290 124.9850 334° Northwest 470 541 34,000  Level FlightAware
04:04PM 60.9900 124.9220 333° Northwest 466 536 34,000  Level FlightAware
04:05PM 61.0670 124.8430 334° Northwest 468 539 34,000  Level FlightAware
04:06PM 61.1830 124.7230 334° Northwest 465 535 34,000  Level FlightAware
04:07PM 61.2590 124.6430 333° Northwest 465 535 34,000  Level FlightAware
04:07PM 61.3210 124.5780 333° Northwest 465 535 34,000  Level FlightAware
04:08PM 61.3780 124.5170 333° Northwest 465 535 34,000  Level FlightAware
04:08PM 61.4350 124.4560 333° Northwest 465 535 34,000  Level FlightAware
04:09PM 61.5380 124.3480 333° Northwest 468 539 34,000  Level FlightAware
04:10PM 61.6100 124.2710 333° Northwest 467 537 34,000  Level FlightAware
04:10PM 61.6570 124.2200 333° Northwest 466 536 34,000  Level FlightAware
04:11PM 61.7400 124.1310 333° Northwest 466 536 34,000  Level FlightAware
04:11PM 61.7800 124.0890 334° Northwest 466 536 34,000  Level FlightAware
04:12PM 61.8380 124.0250 332° Northwest 466 536 34,000  Level FlightAware
04:13PM 61.8990 123.9600 333° Northwest 466 536 34,000  Level FlightAware
04:13PM 61.9560 123.8980 333° Northwest 466 536 34,000  Level FlightAware
04:14PM 62.0130 123.8360 333° Northwest 466 536 34,000  Level FlightAware
04:14PM 62.0730 123.7700 333° Northwest 466 536 34,000  Level FlightAware
04:15PM 62.1310 123.7080 333° Northwest 466 536 34,000  Level FlightAware
04:15PM 62.1890 123.6440 333° Northwest 466 536 34,000  Level FlightAware
04:16PM 62.2480 123.5800 333° Northwest 466 536 34,000  Level FlightAware
04:17PM 62.3070 123.5150 333° Northwest 466 536 34,000  Level FlightAware
04:17PM 62.3670 123.4490 333° Northwest 466 536 34,000  Level FlightAware
04:18PM 62.4260 123.3840 333° Northwest 466 536 34,000  Level FlightAware
04:19PM 62.4860 123.3180 333° Northwest 466 536 34,000  Level FlightAware
04:19PM 62.5450 123.2530 333° Northwest 466 536 34,000  Level FlightAware
04:20PM 62.6020 123.1890 333° Northwest 466 536 34,000  Level FlightAware
04:22PM 62.7700 122.8666 319° Northwest  Level Estimated
04:23PM 62.8630 122.6860 318° Northwest  Level Estimated
04:24PM 62.9558 122.5041 318° Northwest  Level Estimated
04:25PM 63.0483 122.3212 318° Northwest  Level Estimated
04:26PM 63.1406 122.1370 318° Northwest  Level Estimated
04:27PM 63.2327 121.9517 318° Northwest  Level Estimated
04:28PM 63.3245 121.7652 318° Northwest  Level Estimated
04:29PM 63.4161 121.5775 318° Northwest  Level Estimated
04:30PM 63.5074 121.3886 317° Northwest  Level Estimated
04:31PM 63.5985 121.1985 317° Northwest  Level Estimated
04:32PM 63.6893 121.0071 317° Northwest  Level Estimated
04:33PM 63.7799 120.8146 317° Northwest  Level Estimated
04:34PM 63.8702 120.6208 317° Northwest  Level Estimated
04:35PM 63.9602 120.4258 316° Northwest  Level Estimated
04:36PM 64.0500 120.2294 316° Northwest  Level Estimated
04:37PM 64.1395 120.0319 316° Northwest  Level Estimated
04:38PM 64.2288 119.8330 316° Northwest  Level Estimated
04:39PM 64.3178 119.6329 316° Northwest  Level Estimated
04:40PM 64.4065 119.4315 316° Northwest  Level Estimated
04:41PM 64.4949 119.2288 315° West  Level Estimated
04:42PM 64.5830 119.0247 315° West  Level Estimated
04:43PM 64.6709 118.8194 315° West  Level Estimated
04:44PM 64.7585 118.6127 315° West  Level Estimated
04:45PM 64.8457 118.4046 315° West  Level Estimated
04:46PM 64.9327 118.1952 314° West  Level Estimated
04:47PM 65.0194 117.9845 314° West  Level Estimated
04:48PM 65.1058 117.7724 314° West  Level Estimated
04:49PM 65.1919 117.5589 314° West  Level Estimated
04:50PM 65.2777 117.3440 314° West  Level Estimated
04:51PM 65.3632 117.1277 314° West  Level Estimated
04:52PM 65.4484 116.9100 313° West  Level Estimated
04:53PM 65.5332 116.6909 313° West  Level Estimated
04:54PM 65.6178 116.4703 313° West  Level Estimated
04:55PM 65.7020 116.2483 313° West  Level Estimated
04:56PM 65.7859 116.0249 313° West  Level Estimated
04:57PM 65.8695 115.8000 312° West  Level Estimated
04:58PM 65.9527 115.5736 312° West  Level Estimated
04:59PM 66.0356 115.3458 312° West  Level Estimated
05:00PM 66.1180 115.1168 312° West  Level Estimated
05:01PM 66.2001 114.8863 311° West  Level Estimated
05:02PM 66.2819 114.6544 311° West  Level Estimated
05:03PM 66.3633 114.4209 311° West  Level Estimated
05:04PM 66.4444 114.1859 311° West  Level Estimated
05:05PM 66.5251 113.9493 311° West  Level Estimated
05:06PM 66.6054 113.7113 310° West  Level Estimated
05:07PM 66.6854 113.4716 310° West  Level Estimated
05:08PM 66.7650 113.2305 310° West  Level Estimated
05:09PM 66.8442 112.9877 310° West  Level Estimated
05:10PM 66.9231 112.7434 310° West  Level Estimated
05:11PM 67.0016 112.4976 309° West  Level Estimated
05:12PM 67.0797 112.2501 309° West  Level Estimated
05:13PM 67.1574 112.0010 309° West  Level Estimated
05:14PM 67.2347 111.7504 309° West  Level Estimated
05:15PM 67.3117 111.4981 308° West  Level Estimated
05:16PM 67.3882 111.2442 308° West  Level Estimated
05:17PM 67.4643 110.9890 308° West  Level Estimated
05:18PM 67.5399 110.7322 308° West  Level Estimated
05:19PM 67.6151 110.4737 307° West  Level Estimated
05:20PM 67.6899 110.2136 307° West  Level Estimated
05:21PM 67.7643 109.9519 307° West  Level Estimated
05:22PM 67.8383 109.6885 307° West  Level Estimated
05:23PM 67.9118 109.4234 306° West  Level Estimated
05:24PM 67.9849 109.1566 306° West  Level Estimated
05:25PM 68.0576 108.8882 306° West  Level Estimated
05:26PM 68.1299 108.6180 306° West  Level Estimated
05:27PM 68.2016 108.3462 306° West  Level Estimated
05:28PM 68.2730 108.0727 305° West  Level Estimated
05:29PM 68.3439 107.7974 305° West  Level Estimated
05:30PM 68.4143 107.5205 305° West  Level Estimated
05:31PM 68.4843 107.2418 304° West  Level Estimated
05:32PM 68.5538 106.9614 304° West  Level Estimated
05:33PM 68.6229 106.6792 304° West  Level Estimated
05:34PM 68.6914 106.3953 304° West  Level Estimated
05:35PM 68.7595 106.1097 303° West  Level Estimated
05:36PM 68.8271 105.8224 303° West  Level Estimated
05:37PM 68.8942 105.5333 303° West  Level Estimated
05:38PM 68.9609 105.2424 303° West  Level Estimated
05:39PM 69.0270 104.9498 302° West  Level Estimated
05:40PM 69.0926 104.6554 302° West  Level Estimated
05:41PM 69.1577 104.3592 302° West  Level Estimated
05:42PM 69.2223 104.0613 302° West  Level Estimated
05:43PM 69.2864 103.7616 301° West  Level Estimated
05:44PM 69.3500 103.4602 301° West  Level Estimated
05:45PM 69.4130 103.1569 301° West  Level Estimated
05:46PM 69.4755 102.8519 300° West  Level Estimated
05:47PM 69.5375 102.5452 300° West  Level Estimated
05:48PM 69.5990 102.2366 300° West  Level Estimated
05:49PM 69.6598 101.9263 300° West  Level Estimated
05:50PM 69.7202 101.6142 299° West  Level Estimated
05:51PM 69.7799 101.3003 299° West  Level Estimated
05:52PM 69.8392 100.9846 299° West  Level Estimated
05:53PM 69.8978 100.6672 298° West  Level Estimated
05:54PM 69.9559 100.3480 298° West  Level Estimated
05:55PM 70.0134 100.0270 298° West  Level Estimated
05:56PM 70.0703 99.7043 297° West  Level Estimated
05:57PM 70.1266 99.3798 297° West  Level Estimated
05:58PM 70.1825 99.0531 297° West  Level Estimated
05:59PM 70.2377 98.7246 297° West  Level Estimated
06:00PM 70.2923 98.3943 296° West  Level Estimated
06:01PM 70.3464 98.0623 296° West  Level Estimated
06:02PM 70.3998 97.7286 296° West  Level Estimated
06:03PM 70.4526 97.3931 295° West  Level Estimated
06:04PM 70.5047 97.0558 295° West  Level Estimated
06:05PM 70.5563 96.7169 295° West  Level Estimated
06:06PM 70.6072 96.3762 294° West  Level Estimated
06:07PM 70.6574 96.0338 294° West  Level Estimated
06:08PM 70.7071 95.6897 294° West  Level Estimated
06:09PM 70.7561 95.3439 293° West  Level Estimated
06:10PM 70.8043 94.9970 293° West  Level Estimated
06:11PM 70.8519 94.6483 293° West  Level Estimated
06:12PM 70.8989 94.2980 292° West  Level Estimated
06:13PM 70.9451 93.9460 292° West  Level Estimated
06:14PM 70.9908 93.5924 292° West  Level Estimated
06:15PM 71.0357 93.2372 291° West  Level Estimated
06:16PM 71.0799 92.8804 291° West  Level Estimated
06:17PM 71.1235 92.5219 291° West  Level Estimated
06:18PM 71.1664 92.1619 290° West  Level Estimated
06:19PM 71.2086 91.8003 290° West  Level Estimated
06:20PM 71.2500 91.4372 290° West  Level Estimated
06:21PM 71.2908 91.0725 289° West  Level Estimated
06:22PM 71.3309 90.7063 289° West  Level Estimated
06:23PM 71.3702 90.3385 289° West  Level Estimated
06:24PM 71.4089 89.9693 288° West  Level Estimated
06:25PM 71.4468 89.5987 288° West  Level Estimated
06:26PM 71.4840 89.2265 288° West  Level Estimated
06:27PM 71.5205 88.8530 287° West  Level Estimated
06:28PM 71.5562 88.4780 287° West  Level Estimated
06:29PM 71.5912 88.1016 287° West  Level Estimated
06:30PM 71.6254 87.7239 286° West  Level Estimated
06:31PM 71.6589 87.3448 286° West  Level Estimated
06:32PM 71.6917 86.9644 285° West  Level Estimated
06:33PM 71.7237 86.5827 285° West  Level Estimated
06:34PM 71.7549 86.1998 285° West  Level Estimated
06:35PM 71.7854 85.8155 284° West  Level Estimated
06:36PM 71.8151 85.4301 284° West  Level Estimated
06:37PM 71.8440 85.0434 284° West  Level Estimated
06:38PM 71.8721 84.6556 283° West  Level Estimated
06:39PM 71.8995 84.2666 283° West  Level Estimated
06:40PM 71.9261 83.8765 283° West  Level Estimated
06:41PM 71.9519 83.4853 282° West  Level Estimated
06:42PM 71.9769 83.0930 282° West  Level Estimated
06:43PM 72.0012 82.6997 281° West  Level Estimated
06:44PM 72.0246 82.3054 281° West  Level Estimated
06:45PM 72.0472 81.9101 281° West  Level Estimated
06:46PM 72.0690 81.5138 280° West  Level Estimated
06:47PM 72.0901 81.1167 280° West  Level Estimated
06:48PM 72.1103 80.7187 280° West  Level Estimated
06:49PM 72.1297 80.3197 279° West  Level Estimated
06:50PM 72.1483 79.9200 279° West  Level Estimated
06:51PM 72.1661 79.5195 278° West  Level Estimated
06:52PM 72.1830 79.1183 278° West  Level Estimated
06:53PM 72.1992 78.7157 278° West  Level Estimated
06:54PM 72.2145 78.3124 277° West  Level Estimated
06:55PM 72.2290 77.9085 277° West  Level Estimated
06:56PM 72.2427 77.5040 277° West  Level Estimated
06:57PM 72.2556 77.0989 276° West  Level Estimated
06:58PM 72.2676 76.6933 276° West  Level Estimated
06:59PM 72.2788 76.2871 275° West  Level Estimated
07:00PM 72.2891 75.8804 275° West  Level Estimated
07:01PM 72.2986 75.4734 275° West  Level Estimated
07:02PM 72.3073 75.0658 274° West  Level Estimated
07:03PM 72.3151 74.6580 274° West  Level Estimated
07:04PM 72.3221 74.2504 273° West  Level Estimated
07:05PM 72.3282 73.8425 273° West  Level Estimated
07:06PM 72.3335 73.4343 273° West  Level Estimated
07:07PM 72.3380 73.0259 272° West  Level Estimated
07:08PM 72.3416 72.6173 272° West  Level Estimated
07:09PM 72.3444 72.2086 271° West  Level Estimated
07:10PM 72.3463 71.7998 271° West  Level Estimated
07:11PM 72.3474 71.3909 271° West  Level Estimated
07:12PM 72.3477 70.9820 270° West  Level Estimated
07:13PM 72.3471 70.5731 270° West  Level Estimated
07:14PM 72.3456 70.1643 270° West  Level Estimated
07:15PM 72.3434 69.7555 269° West  Level Estimated
07:16PM 72.3402 69.3468 269° West  Level Estimated
07:17PM 72.3363 68.9384 268° West  Level Estimated
07:18PM 72.3315 68.5295 268° West  Level Estimated
07:19PM 72.3258 68.1208 268° West  Level Estimated
07:20PM 72.3193 67.7125 267° West  Level Estimated
07:21PM 72.3120 67.3044 267° West  Level Estimated
07:22PM 72.3038 66.8967 266° West  Level Estimated
07:23PM 72.2947 66.4894 266° West  Level Estimated
07:24PM 72.2849 66.0825 266° West  Level Estimated
07:25PM 72.2742 65.6760 265° West  Level Estimated
07:26PM 72.2627 65.2700 265° West  Level Estimated
07:27PM 72.2503 64.8646 264° West  Level Estimated
07:28PM 72.2371 64.4597 264° West  Level Estimated
07:29PM 72.2231 64.0555 264° West  Level Estimated
07:30PM 72.2082 63.6518 263° West  Level Estimated
07:31PM 72.1925 63.2489 263° West  Level Estimated
07:32PM 72.1760 62.8466 263° West  Level Estimated
07:33PM 72.1587 62.4451 262° West  Level Estimated
07:34PM 72.1405 62.0443 262° West  Level Estimated
07:35PM 72.1216 61.6444 261° West  Level Estimated
07:36PM 72.1018 61.2453 261° West  Level Estimated
07:37PM 72.0812 60.8470 261° West  Level Estimated
07:38PM 72.0598 60.4497 260° West  Level Estimated
07:39PM 72.0376 60.0533 260° West  Level Estimated
07:40PM 72.0146 59.6579 260° West  Level Estimated
07:41PM 71.9908 59.2634 259° West  Level Estimated
07:42PM 71.9662 58.8700 259° West  Level Estimated
07:43PM 71.9408 58.4776 258° West  Level Estimated
07:44PM 71.9146 58.0863 258° West  Level Estimated
07:45PM 71.8877 57.6962 258° West  Level Estimated
07:46PM 71.8599 57.3071 257° West  Level Estimated
07:47PM 71.8314 56.9192 257° West  Level Estimated
07:48PM 71.8021 56.5326 257° West  Level Estimated
07:49PM 71.7720 56.1471 256° West  Level Estimated
07:50PM 71.7411 55.7629 256° West  Level Estimated
07:51PM 71.7095 55.3799 255° West  Level Estimated
07:52PM 71.6772 54.9982 255° West  Level Estimated
07:53PM 71.6440 54.6179 255° West  Level Estimated
07:54PM 71.6102 54.2389 254° West  Level Estimated
07:55PM 71.5755 53.8612 254° West  Level Estimated
07:56PM 71.5402 53.4850 254° West  Level Estimated
07:57PM 71.5040 53.1101 253° West  Level Estimated
07:58PM 71.4672 52.7367 253° West  Level Estimated
07:59PM 71.4296 52.3647 253° West  Level Estimated
08:00PM 71.3913 51.9941 252° West  Level Estimated
08:01PM 71.3523 51.6251 252° West  Level Estimated
08:02PM 71.3126 51.2575 252° West  Level Estimated
08:03PM 71.2721 50.8915 251° West  Level Estimated
08:04PM 71.2309 50.5270 251° West  Level Estimated
08:05PM 71.1891 50.1641 250° West  Level Estimated
08:06PM 71.1465 49.8027 250° West  Level Estimated
08:07PM 71.1032 49.4429 250° West  Level Estimated
08:08PM 71.0593 49.0847 249° West  Level Estimated
08:09PM 71.0147 48.7281 249° West  Level Estimated
08:10PM 70.9694 48.3731 249° West  Level Estimated
08:11PM 70.9234 48.0198 248° West  Level Estimated
08:12PM 70.8767 47.6681 248° West  Level Estimated
08:13PM 70.8294 47.3181 248° West  Level Estimated
08:14PM 70.7814 46.9697 247° West  Level Estimated
08:15PM 70.7328 46.6231 247° West  Level Estimated
08:16PM 70.6835 46.2781 247° West  Level Estimated
08:17PM 70.6336 45.9348 246° West  Level Estimated
08:18PM 70.5830 45.5932 246° West  Level Estimated
08:19PM 70.5318 45.2534 246° West  Level Estimated
08:20PM 70.4799 44.9152 245° Southwest  Level Estimated
08:21PM 70.4275 44.5788 245° Southwest  Level Estimated
08:22PM 70.3744 44.2442 245° Southwest  Level Estimated
08:23PM 70.3207 43.9113 245° Southwest  Level Estimated
08:24PM 70.2664 43.5801 244° Southwest  Level Estimated
08:25PM 70.2115 43.2507 244° Southwest  Level Estimated
08:26PM 70.1560 42.9230 244° Southwest  Level Estimated
08:27PM 70.0999 42.5971 243° Southwest  Level Estimated
08:28PM 70.0432 42.2730 243° Southwest  Level Estimated
08:29PM 69.9859 41.9507 243° Southwest  Level Estimated
08:30PM 69.9280 41.6301 242° Southwest  Level Estimated
08:31PM 69.8696 41.3113 242° Southwest  Level Estimated
08:32PM 69.8106 40.9943 242° Southwest  Level Estimated
08:33PM 69.7510 40.6790 241° Southwest  Level Estimated
08:34PM 69.6909 40.3656 241° Southwest  Level Estimated
08:35PM 69.6302 40.0539 241° Southwest  Level Estimated
08:36PM 69.5689 39.7440 241° Southwest  Level Estimated
08:37PM 69.5071 39.4359 240° Southwest  Level Estimated
08:38PM 69.4448 39.1295 240° Southwest  Level Estimated
08:39PM 69.3820 38.8250 240° Southwest  Level Estimated
08:40PM 69.3186 38.5222 239° Southwest  Level Estimated
08:41PM 69.2546 38.2212 239° Southwest  Level Estimated
08:42PM 69.1902 37.9220 239° Southwest  Level Estimated
08:43PM 69.1253 37.6245 239° Southwest  Level Estimated
08:44PM 69.0598 37.3288 238° Southwest  Level Estimated
08:45PM 68.9938 37.0349 238° Southwest  Level Estimated
08:46PM 68.9274 36.7427 238° Southwest  Level Estimated
08:47PM 68.8603 36.4519 237° Southwest  Level Estimated
08:48PM 68.7927 36.1629 237° Southwest  Level Estimated
08:49PM 68.7247 35.8756 237° Southwest  Level Estimated
08:50PM 68.6562 35.5901 237° Southwest  Level Estimated
08:51PM 68.5872 35.3063 236° Southwest  Level Estimated
08:52PM 68.5177 35.0243 236° Southwest  Level Estimated
08:53PM 68.4477 34.7440 236° Southwest  Level Estimated
08:54PM 68.3773 34.4654 236° Southwest  Level Estimated
08:55PM 68.3064 34.1885 235° Southwest  Level Estimated
08:56PM 68.2351 33.9134 235° Southwest  Level Estimated
08:57PM 68.1633 33.6400 235° Southwest  Level Estimated
08:58PM 68.0910 33.3683 235° Southwest  Level Estimated
08:59PM 68.0183 33.0984 234° Southwest  Level Estimated
09:00PM 67.9452 32.8301 234° Southwest  Level Estimated
09:01PM 67.8718 32.5638 234° Southwest  Level Estimated
09:02PM 67.7979 32.2993 234° Southwest  Level Estimated
09:03PM 67.7236 32.0364 233° Southwest  Level Estimated
09:04PM 67.6489 31.7752 233° Southwest  Level Estimated
09:05PM 67.5737 31.5156 233° Southwest  Level Estimated
09:06PM 67.4982 31.2577 233° Southwest  Level Estimated
09:06PM 65.4820 31.7640 232° Southwest 481 554 38,000  Level FlightAware
09:07PM 67.4222 31.0015 232° Southwest  Level Estimated
09:07PM 65.4460 31.6190 239° Southwest 481 554 38,000  Level FlightAware
09:08PM 65.4040 31.4440 240° Southwest 483 556 38,000  Level FlightAware
09:08PM 65.3670 31.2950 239° Southwest 484 557 38,000  Level FlightAware
09:09PM 65.3210 31.1130 239° Southwest 484 557 38,000  Level FlightAware
09:09PM 65.2780 30.9430 239° Southwest 488 562 38,000  Level FlightAware
09:10PM 65.2440 30.8060 239° Southwest 488 562 38,000  Level FlightAware
09:10PM 65.2010 30.6370 239° Southwest 486 559 38,000  Level FlightAware
09:11PM 65.1640 30.4930 239° Southwest 484 557 38,000  Level FlightAware
09:12PM 65.1250 30.3440 238° Southwest 482 555 38,000  Level FlightAware
09:12PM 65.0840 30.1860 238° Southwest 483 556 38,000  Level FlightAware
09:13PM 65.0420 30.0270 238° Southwest 481 554 38,000  Level FlightAware
09:13PM 65.0050 29.8850 238° Southwest 481 554 38,000  Level FlightAware
09:14PM 64.9620 29.7230 238° Southwest 483 556 38,000  Level FlightAware
09:14PM 64.9130 29.5650 234° Southwest 496 571 38,000  Level FlightAware
09:15PM 64.8580 29.4220 228° Southwest 500 575 38,000  Level FlightAware
09:16PM 64.8080 29.2950 227° Southwest 498 573 38,000  Level FlightAware
09:16PM 64.7520 29.1510 228° Southwest 495 570 38,000  Level FlightAware
09:17PM 64.6980 29.0090 228° Southwest 494 568 38,000  Level FlightAware
09:17PM 64.6430 28.8680 228° Southwest 495 570 38,000  Level FlightAware
09:18PM 64.5930 28.7400 228° Southwest 496 571 38,000  Level FlightAware
09:19PM 64.5370 28.5980 228° Southwest 496 571 38,000  Level FlightAware
09:19PM 64.4820 28.4580 228° Southwest 494 568 38,000  Level FlightAware
09:20PM 64.4270 28.3210 227° Southwest 492 566 38,000  Level FlightAware
09:20PM 64.3750 28.1910 227° Southwest 491 565 38,000  Level FlightAware
09:21PM 64.3210 28.0590 227° Southwest 493 567 38,000  Level FlightAware
09:21PM 64.2650 27.9210 227° Southwest 494 568 38,000  Level FlightAware
09:22PM 64.2100 27.7870 227° Southwest 493 567 38,000  Level FlightAware
09:23PM 64.1570 27.6580 227° Southwest 493 567 38,000  Level FlightAware
09:23PM 64.1010 27.5220 227° Southwest 493 567 38,000  Level FlightAware
09:24PM 64.0500 27.4000 226° Southwest 495 570 38,000  Level FlightAware
09:24PM 63.9940 27.2660 226° Southwest 494 568 38,000  Level FlightAware
09:25PM 63.9360 27.1290 226° Southwest 491 565 38,000  Level FlightAware
09:26PM 63.8860 27.0100 226° Southwest 489 563 38,000  Level FlightAware
09:26PM 63.8300 26.8800 226° Southwest 488 562 38,000  Level FlightAware
09:27PM 63.7740 26.7490 226° Southwest 487 560 38,000  Level FlightAware
09:27PM 63.7150 26.6130 226° Southwest 487 560 38,000  Level FlightAware
09:28PM 63.6640 26.4950 226° Southwest 488 562 38,000  Level FlightAware
09:28PM 63.6070 26.3650 225° Southwest 487 560 38,000  Level FlightAware
09:29PM 63.5540 26.2450 225° Southwest 489 563 38,000  Level FlightAware
09:30PM 63.5000 26.1220 225° Southwest 488 562 38,000  Level FlightAware
09:30PM 63.4380 25.9840 225° Southwest 490 564 38,000  Level FlightAware
09:31PM 63.3880 25.8720 225° Southwest 491 565 38,000  Level FlightAware
09:31PM 63.3400 25.7640 225° Southwest 492 566 38,000  Level FlightAware
09:32PM 63.2780 25.6280 225° Southwest 493 567 38,000  Level FlightAware
09:33PM 63.2190 25.4980 225° Southwest 493 567 38,000  Level FlightAware
09:33PM 63.1620 25.3740 225° Southwest 493 567 38,000  Level FlightAware
09:34PM 63.1070 25.2540 225° Southwest 492 566 38,000  Level FlightAware
09:34PM 63.0500 25.1320 224° Southwest 492 566 38,000  Level FlightAware
09:35PM 62.9950 25.0140 224° Southwest 491 565 38,000  Level FlightAware
09:36PM 62.9300 24.8740 224° Southwest 489 563 38,000  Level FlightAware
09:36PM 62.8880 24.7850 224° Southwest 487 560 38,000  Level FlightAware
09:37PM 62.8280 24.6600 224° Southwest 487 560 38,000  Level FlightAware
09:37PM 62.7680 24.5340 224° Southwest 488 562 38,000  Level FlightAware
09:38PM 62.7150 24.4230 224° Southwest 489 563 38,000  Level FlightAware
09:38PM 62.6560 24.3000 224° Southwest 490 564 38,000  Level FlightAware
09:39PM 62.5990 24.1820 224° Southwest 491 565 38,000  Level FlightAware
09:39PM 62.5450 24.0720 223° Southwest 492 566 38,000  Level FlightAware
09:40PM 62.4840 23.9470 223° Southwest 493 567 38,000  Level FlightAware
09:41PM 62.4260 23.8300 223° Southwest 493 567 38,000  Level FlightAware
09:41PM 62.3660 23.7090 223° Southwest 493 567 38,000  Level FlightAware
09:42PM 62.3110 23.5990 223° Southwest 494 568 38,000  Level FlightAware
09:42PM 62.2500 23.4760 223° Southwest 495 570 38,000  Level FlightAware
09:43PM 62.1920 23.3600 223° Southwest 494 568 38,000  Level FlightAware
09:44PM 62.1300 23.2380 223° Southwest 493 567 38,000  Level FlightAware
09:44PM 62.0750 23.1310 222° Southwest 494 568 38,000  Level FlightAware
09:45PM 62.0150 23.0150 222° Southwest 493 567 38,000  Level FlightAware
09:45PM 61.9630 22.9130 223° Southwest 493 567 38,000  Level FlightAware
09:46PM 61.8990 22.7890 222° Southwest 493 567 38,000  Level FlightAware
09:46PM 61.8420 22.6800 222° Southwest 492 566 38,000  Level FlightAware
09:47PM 61.7810 22.5630 222° Southwest 493 567 38,000  Level FlightAware
09:48PM 61.7230 22.4530 222° Southwest 493 567 38,000  Level FlightAware
09:48PM 61.6680 22.3490 222° Southwest 492 566 38,000  Level FlightAware
09:49PM 61.6060 22.2330 222° Southwest 492 566 38,000  Level FlightAware
09:49PM 61.5460 22.1200 222° Southwest 492 566 38,000  Level FlightAware
09:50PM 61.4850 22.0070 222° Southwest 490 564 38,000  Level FlightAware
09:51PM 61.4290 21.9030 222° Southwest 490 564 38,000  Level FlightAware
09:51PM 61.3640 21.7840 221° Southwest 494 568 38,000  Level FlightAware
09:52PM 61.3100 21.6850 221° Southwest 495 570 38,000  Level FlightAware
09:52PM 61.2460 21.5680 221° Southwest 496 571 38,000  Level FlightAware
09:53PM 61.1910 21.4690 221° Southwest 496 571 38,000  Level FlightAware
09:53PM 61.1250 21.3500 221° Southwest 496 571 38,000  Level FlightAware
09:54PM 61.0630 21.2390 221° Southwest 496 571 38,000  Level FlightAware
09:55PM 61.0070 21.1390 221° Southwest 496 571 38,000  Level FlightAware
09:55PM 60.9450 21.0300 221° Southwest 497 572 38,000  Level FlightAware
09:56PM 60.8880 20.9280 221° Southwest 495 570 38,000  Level FlightAware
09:56PM 60.8280 20.8140 223° Southwest 491 565 38,000  Level FlightAware
09:57PM 60.7730 20.6940 227° Southwest 489 563 38,000  Level FlightAware
09:58PM 60.7220 20.5770 228° Southwest 491 565 38,000  Level FlightAware
09:58PM 60.6670 20.4490 229° Southwest 493 567 38,000  Level FlightAware
09:59PM 60.6170 20.3330 229° Southwest 495 570 38,000  Level FlightAware
09:59PM 60.5620 20.2060 229° Southwest 495 570 38,000  Level FlightAware
10:00PM 60.5070 20.0810 228° Southwest 495 570 38,000  Level FlightAware
10:01PM 60.4520 19.9550 229° Southwest 495 570 38,000  Level FlightAware
10:01PM 60.4020 19.8420 228° Southwest 495 570 38,000  Level FlightAware
10:02PM 60.3490 19.7220 228° Southwest 494 568 38,000  Level FlightAware
10:02PM 60.2930 19.5970 228° Southwest 493 567 38,000  Level FlightAware
10:03PM 60.2400 19.4790 228° Southwest 494 568 38,000  Level FlightAware
10:03PM 60.1910 19.3700 228° Southwest 496 571 38,000  Level FlightAware
10:04PM 60.1330 19.2420 228° Southwest 496 571 38,000  Level FlightAware
10:05PM 60.0770 19.1170 228° Southwest 497 572 38,000  Level FlightAware
10:05PM 60.0260 19.0080 227° Southwest 496 571 38,000  Level FlightAware
10:06PM 59.9730 18.8920 228° Southwest 496 571 38,000  Level FlightAware
10:06PM 59.9180 18.7740 227° Southwest 495 570 38,000  Level FlightAware
10:07PM 59.8650 18.6610 227° Southwest 494 568 38,000  Level FlightAware
10:07PM 59.8100 18.5450 227° Southwest 495 570 38,000  Level FlightAware
10:08PM 59.7550 18.4260 227° Southwest 496 571 38,000  Level FlightAware
10:09PM 59.6980 18.3080 226° Southwest 497 572 38,000  Level FlightAware
10:09PM 59.6420 18.1890 227° Southwest 498 573 38,000  Level FlightAware
10:10PM 59.5910 18.0830 226° Southwest 498 573 38,000  Level FlightAware
10:10PM 59.5350 17.9660 227° Southwest 497 572 38,000  Level FlightAware
10:11PM 59.4790 17.8510 226° Southwest 498 573 38,000  Level FlightAware
10:12PM 59.4210 17.7310 226° Southwest 499 574 38,000  Level FlightAware
10:12PM 59.3640 17.6160 226° Southwest 500 575 38,000  Level FlightAware
10:13PM 59.3090 17.5040 226° Southwest 501 577 38,000  Level FlightAware
10:13PM 59.2540 17.3910 226° Southwest 500 575 38,000  Level FlightAware
10:14PM 59.1950 17.2720 226° Southwest 499 574 38,000  Level FlightAware
10:14PM 59.1430 17.1690 225° Southwest 499 574 38,000  Level FlightAware
10:15PM 59.0860 17.0560 226° Southwest 500 575 38,000  Level FlightAware
10:16PM 59.0280 16.9390 226° Southwest 501 577 38,000  Level FlightAware
10:16PM 58.9710 16.8260 226° Southwest 497 572 38,000  Level FlightAware
10:17PM 58.9190 16.7260 225° Southwest 494 568 38,000  Level FlightAware
10:17PM 58.8600 16.6100 226° Southwest 496 571 38,000  Level FlightAware
10:18PM 58.8040 16.5000 226° Southwest 497 572 38,000  Level FlightAware
10:19PM 58.7490 16.3940 225° Southwest 494 568 38,000  Level FlightAware
10:19PM 58.6920 16.2840 225° Southwest 495 570 38,000  Level FlightAware
10:20PM 58.6340 16.1740 225° Southwest 497 572 38,000  Level FlightAware
10:20PM 58.5790 16.0680 225° Southwest 498 573 38,000  Level FlightAware
10:21PM 58.5250 15.9660 225° Southwest 499 574 38,000  Level FlightAware
10:21PM 58.4670 15.8560 225° Southwest 501 577 38,000  Level FlightAware
10:22PM 58.4050 15.7390 225° Southwest 500 575 38,000  Level FlightAware
10:23PM 58.3520 15.6400 224° Southwest 500 575 38,000  Level FlightAware
10:23PM 58.2930 15.5300 224° Southwest 500 575 38,000  Level FlightAware
10:24PM 58.2330 15.4190 224° Southwest 500 575 38,000  Level FlightAware
10:24PM 58.1750 15.3130 224° Southwest 501 577 38,000  Level FlightAware
10:25PM 58.1130 15.1980 224° Southwest 502 578 38,000  Level FlightAware
10:26PM 58.0620 15.1060 224° Southwest 502 578 38,000  Level FlightAware
10:26PM 58.0060 15.0040 224° Southwest 502 578 38,000  Level FlightAware
10:27PM 57.9320 14.8700 224° Southwest 502 578 38,000  Level FlightAware
10:27PM 57.9189 14.8458 224° Southwest 502 578 38,000  Level FlightAware ADS-B (ESMN)
10:28PM 57.8677 14.7538 224° Southwest 502 578 38,000  Level FlightAware ADS-B (ESMN)
10:28PM 57.8123 14.6546 224° Southwest 500 575 38,000  Level FlightAware ADS-B (ESMN)
10:29PM 57.7607 14.5627 224° Southwest 501 577 38,000  Level FlightAware ADS-B (ESMN)
10:29PM 57.7028 14.4598 224° Southwest 500 575 38,000  Level FlightAware ADS-B (ESMN)
10:30PM 57.6516 14.3695 223° Southwest 502 578 38,000  Level FlightAware ADS-B (ESMN)
10:30PM 57.5944 14.2683 223° Southwest 499 574 38,000  Level FlightAware ADS-B (ESMN)
10:31PM 57.5308 14.1574 223° Southwest 499 574 38,000  Level FlightAware ADS-B (ESMN)
10:32PM 57.4614 14.0363 223° Southwest 499 574 38,000  Level FlightAware ADS-B (ESMN)
10:32PM 57.3908 13.9143 223° Southwest 500 575 38,000  Level FlightAware ADS-B (ESMN)
10:33PM 57.3401 13.8268 223° Southwest 498 573 38,000  Level FlightAware ADS-B (ESMN)
10:33PM 57.2875 13.7365 223° Southwest 495 570 38,000  Level FlightAware ADS-B (ESMN)
10:34PM 57.2241 13.6281 223° Southwest 496 571 38,000  Level FlightAware ADS-B (ESMN)
10:34PM 57.1682 13.5329 223° Southwest 495 570 38,000  Level FlightAware ADS-B (ESMN)
10:35PM 57.1150 13.4430 223° Southwest 491 565 38,000  Level FlightAware
10:35PM 57.0853 13.3928 223° Southwest 498 573 38,000  Level FlightAware ADS-B (ESMN)
10:36PM 57.0137 13.2724 223° Southwest 502 578 38,000  Level FlightAware ADS-B (ESMN)
10:37PM 56.9556 13.1750 222° Southwest 503 579 38,000  Level FlightAware ADS-B (ESMN)
10:37PM 56.9051 13.0908 222° Southwest 503 579 38,000  Level FlightAware ADS-B (ESMN)
10:38PM 56.8521 13.0027 222° Southwest 504 580 38,000  Level FlightAware ADS-B (ESMN)
10:38PM 56.8008 12.9178 222° Southwest 504 580 38,000  Level FlightAware ADS-B (ESMN)
10:39PM 56.7302 12.8016 222° Southwest 504 580 38,000  Level FlightAware ADS-B (ESMN)
10:39PM 56.6583 12.6837 222° Southwest 503 579 38,000  Level FlightAware ADS-B (ESMN)
10:40PM 56.6092 12.6037 222° Southwest 502 578 38,000  Level FlightAware ADS-B (ESMN)
10:40PM 56.5545 12.5115 223° Southwest 506 582 38,000  Level FlightAware ADS-B (ESMN)
10:41PM 56.4910 12.3926 226° Southwest 507 583 38,000  Level FlightAware ADS-B (ESMN)
10:42PM 56.4390 12.2959 226° Southwest 507 583 38,000  Level FlightAware ADS-B (ESMN)
10:42PM 56.3569 12.1453 226° Southwest 506 582 38,000  Level FlightAware ADS-B (ESMN)
10:43PM 56.3076 12.0529 226° Southwest 506 582 38,000  Level FlightAware ADS-B (ESMN)
10:44PM 56.2521 11.9497 226° Southwest 508 585 38,000  Level FlightAware ADS-B (ESMN)
10:44PM 56.2014 11.8565 226° Southwest 508 585 38,000  Level FlightAware ADS-B (ESMN)
10:45PM 56.1533 11.7678 226° Southwest 510 587 38,000  Level FlightAware ADS-B (ESMN)
10:45PM 56.1018 11.6735 226° Southwest 511 588 38,000  Level FlightAware ADS-B (ESMN)
10:46PM 56.0531 11.5845 226° Southwest 511 588 38,000  Level FlightAware ADS-B (ESMN)
10:46PM 55.9874 11.4649 226° Southwest 510 587 38,000  Level FlightAware ADS-B (ESMN)
10:47PM 55.9348 11.3697 225° Southwest 510 587 38,000  Level FlightAware ADS-B (ESMN)
10:47PM 55.8720 11.2570 225° Southwest 504 580 38,000  Level FlightAware
10:48PM 55.8515 11.2196 226° Southwest 511 588 38,000  Level FlightAware ADS-B (ESMN)
10:48PM 55.8012 11.1297 225° Southwest 510 587 38,000  Level FlightAware ADS-B (ESMN)
10:49PM 55.7501 11.0381 225° Southwest 507 583 38,000  Level FlightAware ADS-B (ESMN)
10:49PM 55.6898 10.9309 225° Southwest 498 573 38,000  Level FlightAware ADS-B (ESMN)
10:50PM 55.6322 10.8289 225° Southwest 489 563 38,000  Level FlightAware ADS-B (ESMN)
10:50PM 55.5760 10.7290 225° Southwest 485 558 38,000  Level FlightAware
10:51PM 55.5135 10.6202 225° Southwest 494 568 38,000  Level FlightAware ADS-B (ESMN)
10:52PM 55.4040 10.4290 225° Southwest 486 559 38,000  Level FlightAware
10:53PM 55.3480 10.3330 224° Southwest 499 574 38,000  Level FlightAware
10:53PM 55.3987 10.4203 44° Northeast 493 567 38,000  Level FlightAware ADS-B (ESMN)
10:54PM 55.2547 10.1716 225° Southwest 499 574 38,000  Level FlightAware ADS-B (ESMN)
10:54PM 55.1803 10.0442 224° Southwest 499 574 38,000  Level FlightAware ADS-B (ESMN)
10:55PM 55.1090 9.9230 224° Southwest 495 570 38,000  Level FlightAware
10:55PM 55.0787 9.8715 224° Southwest 500 575 38,000  Level FlightAware ADS-B (ESMN)
10:56PM 54.9900 9.7220 224° Southwest 492 566 38,000  Level FlightAware
10:57PM 54.9250 9.6120 224° Southwest 497 572 38,000  Level FlightAware
10:58PM 54.8660 9.5140 224° Southwest 495 570 38,000  Level FlightAware
10:58PM 54.8319 9.4570 224° Southwest 495 570 38,000  Level FlightAware ADS-B (ESMN)
10:59PM 54.7783 9.3743 222° Southwest 494 568 38,000  Level FlightAware ADS-B (EDLW / DTM)
10:59PM 54.7388 9.3184 219° Southwest 495 570 38,000  Level FlightAware ADS-B (ESMN)
10:59PM 54.6830 9.2440 218° Southwest 487 560 38,000  Level FlightAware
11:00PM 54.7388 9.3184 38° Northeast 495 570 38,000  Level FlightAware ADS-B (ESMN)
11:00PM 54.7388 9.3184 38° Northeast 492 566 38,000  Level FlightAware ADS-B (ESMN)
11:01PM 54.5166 9.0309 217° Southwest 491 565 38,000  Level FlightAware ADS-B (EDLW / DTM)
11:01PM 54.4552 8.9535 216° Southwest 490 564 38,000  Level FlightAware ADS-B (EDLW / DTM)
11:02PM 54.3984 8.8819 216° Southwest 488 562 38,000  Level FlightAware ADS-B (EDLW / DTM)
11:03PM 54.2970 8.7540 216° Southwest 489 563 38,000  Level FlightAware
11:03PM 54.2340 8.6750 216° Southwest 486 559 38,000  Level FlightAware
11:04PM 54.1760 8.6020 216° Southwest 483 556 38,000  Level FlightAware
11:05PM 54.1090 8.5190 216° Southwest 481 554 38,000  Level FlightAware
11:05PM 54.1030 8.5115 216° Southwest 482 555 38,000  Level FlightAware ADS-B (EDLW / DTM)
11:05PM 54.0440 8.4380 216° Southwest 481 554 38,000  Level FlightAware
11:05PM 54.0268 8.4167 216° Southwest 482 555 38,000  Level FlightAware ADS-B (EDLW / DTM)
11:06PM 53.9691 8.3453 216° Southwest 483 556 38,000  Level FlightAware ADS-B (EDLW / DTM)
11:07PM 53.8988 8.2587 216° Southwest 484 557 38,000  Level FlightAware ADS-B (EDLW / DTM)
11:07PM 53.8483 8.1969 216° Southwest 486 559 38,000  Level FlightAware ADS-B (EDLW / DTM)
11:08PM 53.7859 8.1203 216° Southwest 487 560 38,000  Level FlightAware ADS-B (EDLW / DTM)
11:08PM 53.7300 8.0523 216° Southwest 488 562 38,000  Level FlightAware ADS-B (EDLW / DTM)
11:09PM 53.6689 7.9779 216° Southwest 487 560 38,000  Level FlightAware ADS-B (EDLW / DTM)
11:09PM 53.6038 7.8993 216° Southwest 489 563 38,000  Level FlightAware ADS-B (EDLW / DTM)
11:10PM 53.5340 7.8160 215° Southwest 487 560 38,000  Level FlightAware
11:10PM 53.5124 7.7894 216° Southwest 488 562 38,000  Level FlightAware ADS-B (EDLW / DTM)
11:11PM 53.4581 7.7243 215° Southwest 486 559 38,000  Level FlightAware ADS-B (EDLW / DTM)
11:11PM 53.3970 7.6512 216° Southwest 487 560 38,000  Level FlightAware ADS-B (EDLW / DTM)
11:12PM 53.3400 7.5830 216° Southwest 486 559 38,000  Level FlightAware
11:12PM 53.3253 7.5659 215° Southwest 485 558 38,000  Level FlightAware ADS-B (EDLW / DTM)
11:12PM 53.2707 7.5011 215° Southwest 480 552 38,000  Level FlightAware ADS-B (EDLW / DTM)
11:13PM 53.2197 7.4407 215° Southwest 462 532 38,000  Level FlightAware ADS-B (EDLW / DTM)
11:13PM 53.1703 7.3824 215° Southwest 449 517 38,000  Level FlightAware ADS-B (EDLW / DTM)
11:14PM 53.0985 7.2982 215° Southwest 451 519 38,000  Level FlightAware ADS-B (EDLW / DTM)
11:15PM 53.0477 7.2388 215° Southwest 454 522 38,000  Level FlightAware ADS-B (EDLW / DTM)
11:15PM 52.9779 7.1573 215° Southwest 454 522 38,000  Level FlightAware ADS-B (EDLW / DTM)
11:16PM 52.9231 7.0937 215° Southwest 454 522 38,000  Level FlightAware ADS-B (EDLW / DTM)
11:16PM 52.8712 7.0335 215° Southwest 454 522 38,000  Level FlightAware ADS-B (EDLW / DTM)
11:17PM 52.8192 6.9734 215° Southwest 455 524 38,000  Level FlightAware ADS-B (EDLW / DTM)
11:17PM 52.7677 6.9141 215° Southwest 454 522 38,000  Level FlightAware ADS-B (EDLW / DTM)
11:18PM 52.7167 6.8556 215° Southwest 452 520 38,000  Level FlightAware ADS-B (EDLW / DTM)
11:18PM 52.6654 6.7970 215° Southwest 451 519 38,000  Level FlightAware ADS-B (EDLW / DTM)
11:19PM 52.6136 6.7378 215° Southwest 451 519 38,000  Level FlightAware ADS-B (EDLW / DTM)
11:19PM 52.5616 6.6785 215° Southwest 450 518 38,000  Level FlightAware ADS-B (EDLW / DTM)
11:20PM 52.4948 6.6028 215° Southwest 450 518 38,000  Level FlightAware ADS-B (EDLW / DTM)
11:20PM 52.4420 6.5431 215° Southwest 451 519 38,000  Level FlightAware ADS-B (EDLW / DTM)
11:21PM 52.3734 6.4658 215° Southwest 452 520 38,000  Level FlightAware ADS-B (EDLW / DTM)
11:22PM 52.3227 6.4088 215° Southwest 452 520 38,000  Level FlightAware ADS-B (EDLW / DTM)
11:22PM 52.2732 6.3535 214° Southwest 453 521 38,000  Level FlightAware ADS-B (EDLW / DTM)
11:22PM 52.2327 6.3083 214° Southwest 453 521 38,000  Level FlightAware ADS-B (KAUN)
11:23PM 52.2169 6.2908 214° Southwest 454 522 38,000  Level FlightAware ADS-B (KAUN)
11:23PM 52.1978 6.2694 214° Southwest 455 524 38,000  Level FlightAware ADS-B (KAUN)
11:23PM 52.1801 6.2497 214° Southwest 457 526 38,000  Level FlightAware ADS-B (KAUN)
11:24PM 52.1154 6.1778 214° Southwest 465 535 38,000  Level FlightAware ADS-B (EDLW / DTM)
11:24PM 52.0616 6.1182 214° Southwest 468 539 38,000  Level FlightAware ADS-B (EDLW / DTM)
11:25PM 52.0041 6.0548 214° Southwest 468 539 38,000  Level FlightAware ADS-B (EDLW / DTM)
11:25PM 51.9499 5.9950 214° Southwest 467 537 38,000  Level FlightAware ADS-B (KAUN)
11:26PM 51.8981 5.9383 214° Southwest 465 535 38,000  Level FlightAware ADS-B (EDLW / DTM)
11:26PM 51.8441 5.8792 214° Southwest 465 535 38,000  Level FlightAware ADS-B (KAUN)
11:27PM 51.7724 5.8009 214° Southwest 463 533 38,000  Level FlightAware ADS-B (EDLW / DTM)
11:27PM 51.7184 5.7423 214° Southwest 462 532 38,000  Level FlightAware ADS-B (KAUN)
11:28PM 51.6669 5.6867 214° Southwest 462 532 38,000  Level FlightAware ADS-B
11:28PM 51.6304 5.6472 214° Southwest 462 532 38,000  Level FlightAware ADS-B
11:29PM 51.5550 5.5661 214° Southwest 464 534 38,000  Level FlightAware ADS-B
11:29PM 51.4932 5.4998 214° Southwest 464 534 38,000  Level FlightAware ADS-B (KAUN)
11:30PM 51.4376 5.4403 214° Southwest 465 535 38,000  Level FlightAware ADS-B (KAUN)
11:30PM 51.3824 5.3814 214° Southwest 467 537 38,000  Level FlightAware ADS-B (KAUN)
11:31PM 51.3276 5.3230 214° Southwest 467 537 38,000  Level FlightAware ADS-B (KAUN)
11:32PM 51.2546 5.2457 214° Southwest 467 537 38,000  Level FlightAware ADS-B (EGLF / FAB)
11:32PM 51.2000 5.1880 213° Southwest 465 535 38,000  Level FlightAware
11:33PM 51.1302 5.1144 214° Southwest 466 536 38,000  Level FlightAware ADS-B (KAUN)
11:33PM 51.0740 5.0550 214° Southwest 465 535 38,000 -180 Level FlightAware
11:33PM 51.0645 5.0463 214° Southwest 488 562 37,900  Descending FlightAware UK
11:33PM 51.0900 5.0722 34° Northeast 465 535 38,000 120 Climbing FlightAware ADS-B (EGLF / FAB)
11:34PM 50.9846 4.9620 213° Southwest 466 536 38,000  Level FlightAware ADS-B (EGLF / FAB)
11:35PM 50.9175 4.8921 213° Southwest 464 534 38,000  Level FlightAware ADS-B (KAUN)
11:35PM 50.8628 4.8354 213° Southwest 463 533 38,000  Level FlightAware ADS-B (EGLF / FAB)
11:36PM 50.8077 4.7783 213° Southwest 465 535 38,000  Level FlightAware ADS-B (KAUN)
11:36PM 50.7538 4.7227 213° Southwest 461 531 38,000  Level FlightAware ADS-B (KAUN)
11:36PM 50.7397 4.7082 213° Southwest 468 539 38,000  Level FlightAware ADS-B (EGLF / FAB)
11:37PM 50.6814 4.6482 213° Southwest 462 532 38,000 -420 Level FlightAware ADS-B (KAUN)
11:37PM 50.6272 4.5926 213° Southwest 456 525 37,600 -2,040 Descending FlightAware ADS-B (KAUN)
11:38PM 50.5810 4.5450 213° Southwest 446 513 36,000 -3,780 Descending FlightAware
11:38PM 50.5575 4.5213 213° Southwest 447 514 35,100 -4,080 Descending FlightAware ADS-B (KAUN)
11:39PM 50.5059 4.4688 213° Southwest 428 493 33,300 -3,180 Descending FlightAware ADS-B (KAUN)
11:39PM 50.4426 4.4057 212° Southwest 421 484 31,500 -3,240 Descending FlightAware ADS-B (KAUN)
11:40PM 50.3860 4.3620 206° Southwest 435 501 29,500 -3,600 Descending FlightAware
11:40PM 50.3766 4.3549 206° Southwest 429 494 29,300 -2,100 Descending FlightAware ADS-B (KAUN)
11:40PM 50.3163 4.3093 206° Southwest 418 481 28,200 -2,160 Descending FlightAware ADS-B (KAUN)
11:41PM 50.2610 4.2660 206° Southwest 420 483 27,000 -2,340 Descending FlightAware
11:41PM 50.2556 4.2610 206° Southwest 1 1 26,900 -2,280 Descending FlightAware UK
11:41PM 50.2468 4.2544 208° Southwest 418 481 26,700 -1,740 Descending FlightAware ADS-B (KAUN)
11:42PM 50.1541 4.1801 208° Southwest 1 1 25,200 -1,620 Descending FlightAware UK
11:42PM 50.1390 4.1680 208° Southwest 404 465 25,000 -300 Descending FlightAware
11:43PM 50.0780 4.1200 207° Southwest 403 464 25,000  Level FlightAware
11:43PM 50.0290 4.0810 207° Southwest 389 448 25,000 -360 Level FlightAware
11:44PM 49.9700 4.0350 207° Southwest 364 419 24,600 -1,140 Descending FlightAware
11:44PM 49.9170 3.9930 207° Southwest 357 411 23,600 -1,860 Descending FlightAware
11:45PM 49.8640 3.9520 207° Southwest 352 405 22,400 -2,100 Descending FlightAware
11:45PM 49.8266 3.9226 207° Southwest 344 396 21,500 -2,160 Descending FlightAware ADS-B (KAUN)
11:46PM 49.7797 3.8863 207° Southwest 344 396 20,300 -2,220 Descending FlightAware ADS-B (KAUN)
11:47PM 49.7160 3.8370 207° Southwest 337 388 18,600 -2,700 Descending FlightAware
11:47PM 49.6670 3.7990 207° Southwest 358 412 16,700 -2,880 Descending FlightAware
11:48PM 49.6200 3.7620 207° Southwest 360 414 15,400 -2,340 Descending FlightAware
11:49PM 49.5660 3.7210 206° Southwest 352 405 14,100 -2,160 Descending FlightAware
11:49PM 49.5430 3.7020 208° Southwest 348 400 13,500 -1,800 Descending FlightAware
11:49PM 49.5050 3.6490 222° Southwest 343 395 12,700 -1,920 Descending FlightAware
11:50PM 49.4630 3.5900 222° Southwest 338 389 11,400 -2,040 Descending FlightAware
11:51PM 49.4240 3.5340 223° Southwest 330 380 10,300 -1,500 Descending FlightAware
11:51PM 49.4010 3.5020 222° Southwest 302 348 10,000 -1,320 Descending FlightAware
11:51PM 49.3800 3.4730 222° Southwest 271 312 9,400 -1,740 Descending FlightAware
11:52PM 49.3600 3.4460 221° Southwest 260 299 8,800 -1,560 Descending FlightAware
11:52PM 49.3420 3.4210 222° Southwest 262 302 8,300 -1,500 Descending FlightAware
11:52PM 49.3230 3.3960 221° Southwest 261 300 7,800 -1,500 Descending FlightAware
11:53PM 49.3050 3.3710 222° Southwest 261 300 7,300 -1,500 Descending FlightAware
11:53PM 49.2840 3.3420 222° Southwest 256 295 6,700 -1,500 Descending FlightAware
11:53PM 49.2670 3.3170 224° Southwest 254 292 6,200 -1,500 Descending FlightAware
11:54PM 49.2500 3.2940 221° Southwest 249 287 5,700 -1,560 Descending FlightAware
11:54PM 49.2330 3.2700 223° Southwest 247 284 5,200 -1,500 Descending FlightAware
11:54PM 49.2120 3.2410 222° Southwest 243 280 4,600 -1,500 Descending FlightAware
11:55PM 49.1950 3.2180 221° Southwest 241 277 4,100 -900 Descending FlightAware
11:55PM 49.1780 3.1930 224° Southwest 235 270 4,000 -180 Descending FlightAware
11:55PM 49.1630 3.1730 221° Southwest 237 273 4,000  Level FlightAware
11:56PM 49.1500 3.1550 222° Southwest 237 273 4,000  Level FlightAware
11:56PM 49.1330 3.1310 223° Southwest 237 273 4,000  Level FlightAware
11:56PM 49.1170 3.1090 222° Southwest 239 275 4,000  Level FlightAware
11:57PM 49.1000 3.0860 222° Southwest 237 273 4,000  Level FlightAware
11:57PM 49.0820 3.0620 221° Southwest 239 275 4,000  Level FlightAware
11:57PM 49.0690 3.0450 221° Southwest 238 274 4,000  Level FlightAware
11:58PM 49.0510 3.0200 222° Southwest 237 273 4,000  Level FlightAware
11:58PM 49.0380 3.0020 222° Southwest 224 258 4,000  Level FlightAware
11:58PM 49.0200 2.9770 222° Southwest 206 237 4,000  Level FlightAware
11:58PM 49.0180 2.9730 233° Southwest 206 237 4,000  Level FlightAware
11:59PM 49.0150 2.9610 249° West 206 237 4,000  Level FlightAware
11:59PM 49.0130 2.9500 255° West 207 238 4,000  Level FlightAware
11:59PM 49.0120 2.9330 265° West 208 239 4,000  Level FlightAware
11:59PM 49.0110 2.9050 267° West 193 222 4,000  Level FlightAware
11:59PM 49.0100 2.8850 266° West 177 204 4,000 -540 Level FlightAware
12:00AM 49.0080 2.8590 263° West 172 198 3,700 -1,020 Descending FlightAware
12:00AM 49.0070 2.8400 265° West 169 194 3,400 -1,020 Descending FlightAware
12:00AM 49.0060 2.8150 267° West 166 191 3,100 -900 Descending FlightAware
12:01AM 49.0050 2.7910 266° West 166 191 2,800 -900 Descending FlightAware
12:01AM 49.0040 2.7690 266° West 162 186 2,500 -840 Descending FlightAware
12:02AM 49.0020 2.7420 264° West 157 181 2,200 -840 Descending FlightAware
12:02AM 49.0020 2.7290 270° West 148 170 2,000 -960 Descending FlightAware
12:02AM 49.0010 2.7100 265° West 132 152 1,700 -720 Descending FlightAware
12:02AM 48.9990 2.6900 261° West 129 148 1,500 -600 Descending FlightAware
12:03AM 48.9990 2.6720 270° West 128 147 1,300 -780 Descending FlightAware
12:03AM 48.9980 2.6530 265° West 133 153 1,000 -780 Descending FlightAware
12:03AM 48.9970 2.6350 265° West 140 161 800 -840 Descending FlightAware
12:04AM 48.9950 2.6090 263° West 148 170 400 -960 Descending FlightAware
12:04AM 48.9940 2.5880 266° West 135 155 -1,200 Descending FlightAware
12:04AM 48.9940 2.5810 270° West 94 108  Level FlightAware